Time;durP1;ratioP1;P1;durP2;ratioP2;P2;SDS_P1;SDS_P2;PMS_P1;PMS_P2;Temp;Humidity;BMP_temperature;BMP_pressure;BME280_temperature;BME280_humidity;BME280_pressure;Samples;Min_cycle;Max_cycle;Signal;HPM_P1;HPM_P2
2023/08/25 00:00:27;;;;;;;67.38;63.92;;;;;;;;;;5085753;28;20032;-72
2023/08/25 00:02:52;;;;;;;94.68;89.75;;;;;;;;;;5061028;28;20037;-75
2023/08/25 00:05:18;;;;;;;87.53;83.13;;;;;;;;;;5085750;28;20077;-73
2023/08/25 00:07:43;;;;;;;102.18;96.93;;;;;;;;;;5086153;28;20040;-73
2023/08/25 00:10:09;;;;;;;96.35;91.20;;;;;;;;;;5070205;28;20035;-73
2023/08/25 00:12:34;;;;;;;110.38;104.82;;;;;;;;;;5079350;28;20557;-73
2023/08/25 00:14:59;;;;;;;89.28;84.80;;;;;;;;;;5084463;28;20047;-73
2023/08/25 00:17:25;;;;;;;118.47;112.50;;;;;;;;;;5084481;28;20042;-73
2023/08/25 00:19:51;;;;;;;139.25;132.25;;;;;;;;;;5083853;28;20039;-73
2023/08/25 00:22:17;;;;;;;151.88;144.23;;;;;;;;;;5062709;28;20059;-72
2023/08/25 00:24:42;;;;;;;169.13;160.73;;;;;;;;;;5084409;28;20473;-71
2023/08/25 00:27:08;;;;;;;152.38;144.82;;;;;;;;;;5047975;28;20089;-70
2023/08/25 00:29:33;;;;;;;157.05;149.18;;;;;;;;;;5084028;28;20347;-68
2023/08/25 00:31:59;;;;;;;140.55;133.48;;;;;;;;;;5083054;28;20119;-71
2023/08/25 00:34:24;;;;;;;121.07;115.10;;;;;;;;;;5077283;28;20712;-70
2023/08/25 00:36:50;;;;;;;109.50;104.03;;;;;;;;;;5065165;28;20056;-70
2023/08/25 00:39:15;;;;;;;139.38;132.43;;;;;;;;;;5083025;28;20092;-72
2023/08/25 00:41:41;;;;;;;156.43;148.60;;;;;;;;;;5064456;28;20067;-68
2023/08/25 00:44:06;;;;;;;177.45;168.65;;;;;;;;;;5061617;28;20028;-67
2023/08/25 00:46:32;;;;;;;171.15;162.68;;;;;;;;;;5083454;28;20035;-72
2023/08/25 00:48:57;;;;;;;173.15;164.65;;;;;;;;;;5082818;28;20040;-69
2023/08/25 00:51:24;;;;;;;169.68;161.27;;;;;;;;;;5083035;28;20040;-69
2023/08/25 00:53:49;;;;;;;152.82;145.10;;;;;;;;;;5081032;28;20548;-69
2023/08/25 00:56:17;;;;;;;144.88;137.77;;;;;;;;;;5081314;28;20032;-69
2023/08/25 00:58:43;;;;;;;150.07;142.65;;;;;;;;;;5083094;28;20135;-68
2023/08/25 01:01:08;;;;;;;156.85;148.95;;;;;;;;;;5083127;28;20115;-72
2023/08/25 01:03:38;;;;;;;178.52;169.75;;;;;;;;;;5083706;28;20034;-71
2023/08/25 01:06:03;;;;;;;165.77;157.60;;;;;;;;;;5061886;28;20046;-71
2023/08/25 01:08:29;;;;;;;153.18;145.65;;;;;;;;;;5082725;28;20036;-70
2023/08/25 01:11:14;;;;;;;154.93;147.20;;;;;;;;;;5063212;28;20370;-68
2023/08/25 01:13:57;;;;;;;160.70;152.43;;;;;;;;;;5071368;28;20370;-70
2023/08/25 01:16:29;;;;;;;132.10;125.57;;;;;;;;;;5084912;28;20173;-68
2023/08/25 01:18:56;;;;;;;137.85;131.02;;;;;;;;;;5084236;28;20568;-68
2023/08/25 01:21:25;;;;;;;134.25;127.55;;;;;;;;;;5083307;28;20043;-71
2023/08/25 01:24:15;;;;;;;119.57;113.65;;;;;;;;;;5080970;28;20107;-70
2023/08/25 01:26:41;;;;;;;116.00;110.18;;;;;;;;;;5062565;28;20065;-71
2023/08/25 01:29:07;;;;;;;126.18;119.80;;;;;;;;;;5084356;28;20043;-70
2023/08/25 01:31:32;;;;;;;103.90;98.75;;;;;;;;;;5082094;28;21196;-67
2023/08/25 01:33:57;;;;;;;92.65;87.53;;;;;;;;;;5082430;28;20059;-70
2023/08/25 01:36:30;;;;;;;112.95;107.28;;;;;;;;;;5080581;28;20032;-68
2023/08/25 01:39:12;;;;;;;122.95;116.85;;;;;;;;;;5082892;28;20727;-70
2023/08/25 01:41:40;;;;;;;129.57;123.10;;;;;;;;;;5083169;28;20136;-69
2023/08/25 01:44:06;;;;;;;151.48;143.98;;;;;;;;;;5082018;28;20040;-68
2023/08/25 01:46:34;;;;;;;178.93;170.10;;;;;;;;;;5080370;28;20032;-70
2023/08/25 01:49:02;;;;;;;202.38;192.35;;;;;;;;;;5077697;28;20458;-69
2023/08/25 01:51:28;;;;;;;215.27;204.63;;;;;;;;;;5082441;28;20655;-70
2023/08/25 01:53:55;;;;;;;223.75;212.50;;;;;;;;;;5082526;28;20028;-67
2023/08/25 01:56:22;;;;;;;231.32;219.77;;;;;;;;;;5083081;28;20115;-68
2023/08/25 01:58:48;;;;;;;237.90;225.80;;;;;;;;;;5077189;28;20037;-67
2023/08/25 02:01:13;;;;;;;210.35;199.55;;;;;;;;;;5082344;28;20040;-67
2023/08/25 02:03:39;;;;;;;227.65;216.23;;;;;;;;;;5064363;28;20577;-67
2023/08/25 02:06:04;;;;;;;211.02;200.45;;;;;;;;;;5085224;28;20032;-67
2023/08/25 02:08:29;;;;;;;205.55;195.18;;;;;;;;;;5064401;28;20059;-67
2023/08/25 02:10:55;;;;;;;183.02;173.93;;;;;;;;;;5085235;28;20062;-68
2023/08/25 02:13:20;;;;;;;181.70;172.43;;;;;;;;;;5087422;28;20036;-68
2023/08/25 02:15:47;;;;;;;174.55;165.88;;;;;;;;;;5088465;28;20111;-67
2023/08/25 02:18:12;;;;;;;150.45;142.82;;;;;;;;;;5081073;28;20039;-67
2023/08/25 02:20:38;;;;;;;146.52;138.82;;;;;;;;;;5086477;28;20032;-67
2023/08/25 02:23:04;;;;;;;139.52;132.35;;;;;;;;;;5085735;28;20032;-69
2023/08/25 02:25:30;;;;;;;141.00;133.88;;;;;;;;;;5086256;28;20028;-69
2023/08/25 02:27:56;;;;;;;129.65;122.63;;;;;;;;;;5085349;28;20032;-68
2023/08/25 02:30:22;;;;;;;130.90;124.22;;;;;;;;;;5081290;28;20020;-68
2023/08/25 02:32:47;;;;;;;133.70;126.43;;;;;;;;;;5086234;28;20066;-68
2023/08/25 02:35:13;;;;;;;132.25;125.22;;;;;;;;;;5084594;28;20056;-69
2023/08/25 02:37:57;;;;;;;125.15;118.78;;;;;;;;;;5084610;28;20099;-69
2023/08/25 02:40:23;;;;;;;118.13;111.97;;;;;;;;;;5082645;28;20042;-69
2023/08/25 02:42:48;;;;;;;111.78;105.28;;;;;;;;;;5086067;28;20036;-69
2023/08/25 02:45:14;;;;;;;104.00;98.05;;;;;;;;;;5066930;28;20131;-73
2023/08/25 02:47:39;;;;;;;115.75;108.78;;;;;;;;;;5084975;28;20105;-72
2023/08/25 02:50:05;;;;;;;119.13;112.97;;;;;;;;;;5081341;28;20513;-69
2023/08/25 02:52:30;;;;;;;102.68;97.32;;;;;;;;;;5085581;28;20394;-70
2023/08/25 02:54:55;;;;;;;112.40;106.47;;;;;;;;;;5085769;28;20032;-69
2023/08/25 02:57:21;;;;;;;112.90;107.13;;;;;;;;;;5086499;28;20070;-69
2023/08/25 02:59:46;;;;;;;102.53;96.88;;;;;;;;;;5082441;28;20036;-69
2023/08/25 03:02:12;;;;;;;100.70;95.32;;;;;;;;;;5082217;28;20036;-69
2023/08/25 03:04:37;;;;;;;113.10;106.80;;;;;;;;;;5084365;28;20035;-69
2023/08/25 03:07:03;;;;;;;98.68;93.53;;;;;;;;;;5085652;28;20562;-69
2023/08/25 03:09:28;;;;;;;89.25;84.55;;;;;;;;;;5084595;28;20075;-72
2023/08/25 03:11:53;;;;;;;99.45;94.10;;;;;;;;;;5080047;28;20086;-72
2023/08/25 03:14:18;;;;;;;102.30;97.13;;;;;;;;;;5085022;28;20070;-72
2023/08/25 03:16:44;;;;;;;94.88;89.85;;;;;;;;;;5085544;28;20042;-72
2023/08/25 03:19:09;;;;;;;101.03;95.30;;;;;;;;;;5084939;28;20098;-72
2023/08/25 03:21:35;;;;;;;98.68;93.32;;;;;;;;;;5083197;28;20059;-71
2023/08/25 03:24:00;;;;;;;104.45;98.63;;;;;;;;;;5067939;28;20081;-70
2023/08/25 03:26:27;;;;;;;81.85;77.68;;;;;;;;;;5084695;28;20063;-70
2023/08/25 03:28:52;;;;;;;99.07;93.82;;;;;;;;;;5065766;28;20028;-68
2023/08/25 03:31:18;;;;;;;98.95;93.82;;;;;;;;;;5079336;28;20062;-72
2023/08/25 03:33:43;;;;;;;104.88;99.40;;;;;;;;;;5084652;28;20608;-71
2023/08/25 03:36:08;;;;;;;122.10;115.70;;;;;;;;;;5085539;28;20173;-71
2023/08/25 03:38:34;;;;;;;122.43;116.25;;;;;;;;;;5086207;28;20034;-68
2023/08/25 03:41:00;;;;;;;127.50;120.93;;;;;;;;;;5084698;28;20801;-71
2023/08/25 03:43:25;;;;;;;120.93;114.72;;;;;;;;;;5080745;28;20024;-68
2023/08/25 03:45:51;;;;;;;133.18;126.30;;;;;;;;;;5084389;28;20105;-68
2023/08/25 03:48:16;;;;;;;132.02;125.18;;;;;;;;;;5085034;28;20093;-68
2023/08/25 03:50:46;;;;;;;114.85;108.65;;;;;;;;;;5084804;28;20039;-71
2023/08/25 03:53:11;;;;;;;109.40;103.73;;;;;;;;;;5080796;28;20028;-68
2023/08/25 03:55:37;;;;;;;112.93;107.13;;;;;;;;;;5066260;28;20297;-71
2023/08/25 03:58:02;;;;;;;110.10;104.53;;;;;;;;;;5083819;28;20038;-71
2023/08/25 04:00:28;;;;;;;111.63;105.78;;;;;;;;;;5084622;28;20035;-72
2023/08/25 04:02:53;;;;;;;111.13;104.93;;;;;;;;;;5080199;28;21262;-68
2023/08/25 04:05:18;;;;;;;110.72;105.03;;;;;;;;;;5083640;28;20027;-70
2023/08/25 04:07:44;;;;;;;119.47;112.93;;;;;;;;;;5084696;28;20036;-70
2023/08/25 04:10:09;;;;;;;99.85;94.50;;;;;;;;;;5083862;28;20074;-67
2023/08/25 04:12:34;;;;;;;117.07;110.57;;;;;;;;;;5080087;28;20059;-70
2023/08/25 04:15:00;;;;;;;112.82;106.93;;;;;;;;;;5083538;28;20032;-70
2023/08/25 04:17:25;;;;;;;115.07;109.25;;;;;;;;;;5083641;28;20048;-68
2023/08/25 04:19:50;;;;;;;113.88;107.57;;;;;;;;;;5084489;28;20506;-70
2023/08/25 04:22:16;;;;;;;115.03;109.00;;;;;;;;;;5085230;28;20035;-71
2023/08/25 04:24:42;;;;;;;113.05;106.88;;;;;;;;;;5078747;28;20039;-68
2023/08/25 04:27:07;;;;;;;119.82;113.43;;;;;;;;;;5083361;28;20048;-71
2023/08/25 04:29:33;;;;;;;108.53;102.70;;;;;;;;;;5082629;28;20405;-71
2023/08/25 04:31:58;;;;;;;120.65;114.47;;;;;;;;;;5065736;28;20157;-69
2023/08/25 04:34:23;;;;;;;135.93;128.88;;;;;;;;;;5079333;28;20032;-69
2023/08/25 04:36:49;;;;;;;133.15;126.30;;;;;;;;;;5083623;28;20100;-70
2023/08/25 04:39:14;;;;;;;123.03;116.57;;;;;;;;;;5082716;28;20031;-68
2023/08/25 04:41:40;;;;;;;115.60;109.68;;;;;;;;;;5082932;28;20653;-67
2023/08/25 04:44:06;;;;;;;115.78;109.70;;;;;;;;;;5078915;28;20055;-66
2023/08/25 04:46:31;;;;;;;126.78;120.20;;;;;;;;;;5079746;28;20071;-70
2023/08/25 04:48:57;;;;;;;198.60;185.90;;;;;;;;;;5077228;28;20935;-67
2023/08/25 04:51:22;;;;;;;140.07;133.00;;;;;;;;;;5080485;28;20040;-67
2023/08/25 04:53:48;;;;;;;145.95;138.52;;;;;;;;;;5079423;28;20038;-67
2023/08/25 04:56:14;;;;;;;165.20;156.93;;;;;;;;;;5067510;28;20042;-65
2023/08/25 04:58:40;;;;;;;158.68;150.73;;;;;;;;;;5082957;28;20166;-74
2023/08/25 05:01:06;;;;;;;135.15;128.27;;;;;;;;;;5082045;28;20434;-73
2023/08/25 05:03:31;;;;;;;108.18;102.30;;;;;;;;;;5080356;28;20086;-73
2023/08/25 05:05:57;;;;;;;122.85;116.60;;;;;;;;;;5080668;28;20028;-65
2023/08/25 05:08:22;;;;;;;113.95;108.15;;;;;;;;;;5080618;28;20043;-73
2023/08/25 05:10:47;;;;;;;118.00;111.93;;;;;;;;;;5079904;28;20111;-73
2023/08/25 05:13:13;;;;;;;85.78;81.15;;;;;;;;;;5079013;28;20064;-65
2023/08/25 05:15:38;;;;;;;73.90;70.03;;;;;;;;;;5079289;28;20028;-66
2023/08/25 05:18:04;;;;;;;80.82;76.75;;;;;;;;;;5063143;28;20048;-73
2023/08/25 05:20:29;;;;;;;89.53;84.65;;;;;;;;;;5080428;28;20036;-73
2023/08/25 05:22:54;;;;;;;86.35;81.72;;;;;;;;;;5082126;28;20024;-72
2023/08/25 05:25:20;;;;;;;80.13;76.00;;;;;;;;;;5078474;28;20083;-71
2023/08/25 05:27:46;;;;;;;84.50;80.13;;;;;;;;;;5061144;28;20561;-71
2023/08/25 05:30:12;;;;;;;90.82;86.00;;;;;;;;;;5047426;28;20039;-72
2023/08/25 05:32:37;;;;;;;81.78;77.45;;;;;;;;;;5063962;28;20032;-70
2023/08/25 05:35:03;;;;;;;91.32;86.65;;;;;;;;;;5082809;28;20055;-70
2023/08/25 05:37:29;;;;;;;94.68;89.68;;;;;;;;;;5075363;28;20462;-72
2023/08/25 05:39:55;;;;;;;91.90;87.15;;;;;;;;;;5053401;28;20031;-71
2023/08/25 05:42:20;;;;;;;81.15;76.82;;;;;;;;;;5086070;28;20128;-71
2023/08/25 05:44:45;;;;;;;82.82;78.60;;;;;;;;;;5087109;28;20047;-71
2023/08/25 05:47:11;;;;;;;83.70;79.28;;;;;;;;;;5084248;28;20032;-70
2023/08/25 05:49:36;;;;;;;88.03;83.50;;;;;;;;;;5086614;28;20477;-71
2023/08/25 05:52:02;;;;;;;89.00;84.22;;;;;;;;;;5087266;28;20173;-72
2023/08/25 05:54:27;;;;;;;89.28;84.50;;;;;;;;;;5069274;28;20450;-74
2023/08/25 05:56:53;;;;;;;86.47;82.03;;;;;;;;;;5081125;28;20039;-64
2023/08/25 05:59:19;;;;;;;82.72;78.53;;;;;;;;;;5083275;28;20039;-65
2023/08/25 06:01:45;;;;;;;81.57;77.30;;;;;;;;;;5085359;28;20531;-65
2023/08/25 06:04:10;;;;;;;86.05;81.53;;;;;;;;;;5066635;28;20036;-64
2023/08/25 06:06:38;;;;;;;73.63;69.72;;;;;;;;;;5061773;28;20426;-66
2023/08/25 06:09:03;;;;;;;82.60;78.35;;;;;;;;;;5085757;28;20228;-66
2023/08/25 06:11:29;;;;;;;74.43;70.55;;;;;;;;;;5083376;28;20036;-66
2023/08/25 06:13:54;;;;;;;73.72;69.82;;;;;;;;;;5085288;28;20047;-65
2023/08/25 06:16:20;;;;;;;80.90;76.68;;;;;;;;;;5083726;28;20036;-65
2023/08/25 06:18:45;;;;;;;70.60;67.03;;;;;;;;;;5063794;28;20032;-66
2023/08/25 06:21:11;;;;;;;67.57;63.97;;;;;;;;;;5081193;28;20039;-65
2023/08/25 06:23:36;;;;;;;72.55;68.72;;;;;;;;;;5081579;28;20028;-65
2023/08/25 06:26:01;;;;;;;66.55;63.10;;;;;;;;;;5066595;28;20028;-66
2023/08/25 06:28:27;;;;;;;63.33;60.08;;;;;;;;;;5065965;28;20056;-65
2023/08/25 06:30:52;;;;;;;65.93;62.38;;;;;;;;;;5066083;28;20107;-65
2023/08/25 06:33:18;;;;;;;67.57;64.05;;;;;;;;;;5080101;28;20032;-66
2023/08/25 06:35:44;;;;;;;67.60;64.00;;;;;;;;;;5084235;28;20128;-65
2023/08/25 06:38:09;;;;;;;68.28;64.55;;;;;;;;;;5083406;28;20441;-65
2023/08/25 06:40:35;;;;;;;71.15;67.32;;;;;;;;;;5082338;28;20102;-65
2023/08/25 06:43:01;;;;;;;68.22;64.72;;;;;;;;;;5060020;28;20132;-64
2023/08/25 06:45:27;;;;;;;70.40;66.80;;;;;;;;;;5079691;28;20040;-64
2023/08/25 06:47:54;;;;;;;70.90;67.25;;;;;;;;;;5065272;28;20041;-65
2023/08/25 06:50:20;;;;;;;68.78;65.18;;;;;;;;;;5083526;28;20032;-63
2023/08/25 06:52:46;;;;;;;69.22;65.68;;;;;;;;;;5082581;28;20172;-63
2023/08/25 06:55:11;;;;;;;77.65;73.57;;;;;;;;;;5060346;28;20432;-64
2023/08/25 06:57:36;;;;;;;76.35;72.45;;;;;;;;;;5085782;28;20036;-65
2023/08/25 07:00:05;;;;;;;72.20;68.55;;;;;;;;;;5073064;28;20040;-67
2023/08/25 07:02:30;;;;;;;72.60;68.90;;;;;;;;;;5066678;28;20032;-67
2023/08/25 07:04:56;;;;;;;73.82;69.80;;;;;;;;;;5087471;28;20240;-64
2023/08/25 07:07:25;;;;;;;71.70;67.95;;;;;;;;;;5066354;28;20038;-64
2023/08/25 07:09:51;;;;;;;67.63;64.17;;;;;;;;;;5079320;28;20257;-64
2023/08/25 07:12:16;;;;;;;69.85;66.22;;;;;;;;;;5051181;28;20260;-64
2023/08/25 07:14:43;;;;;;;71.07;67.35;;;;;;;;;;5072894;28;20059;-65
2023/08/25 07:17:09;;;;;;;71.68;68.07;;;;;;;;;;5087876;28;20063;-65
2023/08/25 07:19:34;;;;;;;62.22;58.70;;;;;;;;;;5064159;28;20055;-66
2023/08/25 07:21:59;;;;;;;64.20;60.88;;;;;;;;;;5083876;28;20478;-64
2023/08/25 07:24:25;;;;;;;70.93;67.22;;;;;;;;;;5083578;28;20031;-65
2023/08/25 07:26:50;;;;;;;63.70;60.45;;;;;;;;;;5082408;28;20078;-65
2023/08/25 07:29:16;;;;;;;54.92;52.10;;;;;;;;;;5086379;28;20445;-65
2023/08/25 07:31:41;;;;;;;58.47;55.15;;;;;;;;;;5084712;28;20032;-65
2023/08/25 07:34:06;;;;;;;67.35;63.80;;;;;;;;;;5084988;28;20051;-65
2023/08/25 07:36:32;;;;;;;66.80;63.35;;;;;;;;;;5086056;28;20559;-64
2023/08/25 07:38:57;;;;;;;64.25;60.95;;;;;;;;;;5083380;28;20035;-64
2023/08/25 07:41:23;;;;;;;66.10;62.80;;;;;;;;;;5083534;28;20074;-65
2023/08/25 07:43:48;;;;;;;58.67;55.72;;;;;;;;;;5082196;28;20027;-65
2023/08/25 07:46:14;;;;;;;66.65;63.30;;;;;;;;;;5084273;28;20089;-65
2023/08/25 07:48:40;;;;;;;67.85;64.30;;;;;;;;;;5071858;28;20036;-64
2023/08/25 07:51:05;;;;;;;66.80;63.42;;;;;;;;;;5079957;28;20101;-64
2023/08/25 07:53:31;;;;;;;66.18;62.83;;;;;;;;;;5086196;28;20040;-64
2023/08/25 07:55:58;;;;;;;63.83;59.75;;;;;;;;;;5080886;28;20031;-64
2023/08/25 07:58:24;;;;;;;59.58;56.58;;;;;;;;;;5083986;28;20040;-65
2023/08/25 08:00:50;;;;;;;66.63;63.25;;;;;;;;;;5082262;28;20035;-64
2023/08/25 08:03:15;;;;;;;74.85;71.13;;;;;;;;;;5081980;28;20016;-66
2023/08/25 08:05:41;;;;;;;70.05;66.28;;;;;;;;;;5087160;28;20528;-65
2023/08/25 08:08:09;;;;;;;85.25;80.90;;;;;;;;;;5080597;28;20035;-65
2023/08/25 08:10:38;;;;;;;100.20;95.20;;;;;;;;;;5085821;28;20035;-65
2023/08/25 08:13:03;;;;;;;107.78;102.30;;;;;;;;;;5082897;28;20119;-67
2023/08/25 08:15:30;;;;;;;147.77;140.55;;;;;;;;;;5082296;28;20123;-66
2023/08/25 08:17:55;;;;;;;143.52;136.57;;;;;;;;;;5082844;28;20040;-66
2023/08/25 08:20:21;;;;;;;200.68;190.93;;;;;;;;;;5083703;28;20024;-67
2023/08/25 08:22:46;;;;;;;201.88;192.25;;;;;;;;;;5082635;28;20044;-69
2023/08/25 08:25:14;;;;;;;208.32;198.30;;;;;;;;;;5083020;28;20050;-69
2023/08/25 08:27:41;;;;;;;211.18;201.07;;;;;;;;;;5080120;28;20089;-69
2023/08/25 08:30:07;;;;;;;181.00;172.10;;;;;;;;;;5064689;28;20557;-67
2023/08/25 08:32:36;;;;;;;198.88;189.05;;;;;;;;;;5077193;28;20042;-70
2023/08/25 08:35:08;;;;;;;252.50;240.38;;;;;;;;;;5083404;28;20036;-68
2023/08/25 08:37:34;;;;;;;196.82;187.25;;;;;;;;;;5079490;28;20039;-69
2023/08/25 08:40:00;;;;;;;190.88;181.60;;;;;;;;;;5084635;28;20048;-71
2023/08/25 08:42:27;;;;;;;224.50;213.65;;;;;;;;;;5062540;28;20043;-71
2023/08/25 08:44:56;;;;;;;231.05;219.80;;;;;;;;;;5079995;28;20101;-71
2023/08/25 08:47:22;;;;;;;219.48;208.70;;;;;;;;;;5084597;28;20036;-71
2023/08/25 08:49:49;;;;;;;174.32;165.75;;;;;;;;;;5079533;28;20463;-69
2023/08/25 08:52:15;;;;;;;143.10;135.93;;;;;;;;;;5086172;28;20028;-70
2023/08/25 08:54:43;;;;;;;184.73;175.55;;;;;;;;;;5082691;28;20616;-72
2023/08/25 08:57:08;;;;;;;89.68;85.22;;;;;;;;;;5082159;28;20051;-68
2023/08/25 08:59:34;;;;;;;128.13;121.70;;;;;;;;;;5063517;28;20028;-70
2023/08/25 09:02:00;;;;;;;113.03;107.32;;;;;;;;;;5080811;28;20035;-69
2023/08/25 09:04:27;;;;;;;98.90;93.97;;;;;;;;;;5084907;28;20023;-69
2023/08/25 09:06:55;;;;;;;113.32;107.60;;;;;;;;;;5079138;28;20128;-71
2023/08/25 09:09:21;;;;;;;169.50;161.00;;;;;;;;;;5083746;28;20027;-67
2023/08/25 09:11:48;;;;;;;161.48;153.15;;;;;;;;;;5084384;28;20042;-68
2023/08/25 09:14:23;;;;;;;183.48;174.30;;;;;;;;;;5079187;28;20093;-70
2023/08/25 09:16:53;;;;;;;203.18;191.98;;;;;;;;;;5085338;28;20024;-68
2023/08/25 09:19:18;;;;;;;213.67;202.87;;;;;;;;;;5079630;28;20705;-66
2023/08/25 09:21:48;;;;;;;247.93;235.57;;;;;;;;;;5082694;28;20048;-67
2023/08/25 09:24:24;;;;;;;192.52;182.98;;;;;;;;;;5091811;28;20075;-66
2023/08/25 09:26:50;;;;;;;141.30;134.10;;;;;;;;;;5094410;28;20176;-66
2023/08/25 09:29:16;;;;;;;143.45;136.30;;;;;;;;;;5100520;28;20048;-66
2023/08/25 09:31:42;;;;;;;150.73;143.18;;;;;;;;;;5095866;28;20984;-67
2023/08/25 09:34:10;;;;;;;126.95;120.45;;;;;;;;;;5101313;28;20093;-66
2023/08/25 09:36:56;;;;;;;104.47;99.18;;;;;;;;;;5100157;28;20039;-68
2023/08/25 09:39:22;;;;;;;133.02;126.30;;;;;;;;;;5079006;28;20055;-66
2023/08/25 09:41:49;;;;;;;95.75;90.90;;;;;;;;;;5100810;28;20562;-67
2023/08/25 09:44:15;;;;;;;138.70;131.60;;;;;;;;;;5098034;28;20424;-66
2023/08/25 09:46:42;;;;;;;104.93;99.60;;;;;;;;;;5100280;28;20028;-65
2023/08/25 09:49:10;;;;;;;104.25;98.95;;;;;;;;;;5097788;28;20042;-70
2023/08/25 09:51:41;;;;;;;58.58;55.58;;;;;;;;;;5100041;28;20096;-68
2023/08/25 09:54:17;;;;;;;45.80;43.40;;;;;;;;;;5100577;28;20043;-70
2023/08/25 09:56:44;;;;;;;46.83;44.38;;;;;;;;;;5094587;28;20770;-72
2023/08/25 09:59:11;;;;;;;53.80;51.03;;;;;;;;;;5100128;28;20032;-70
2023/08/25 10:01:39;;;;;;;58.05;55.10;;;;;;;;;;5095819;28;20107;-71
2023/08/25 10:04:06;;;;;;;45.83;43.47;;;;;;;;;;5099246;28;20023;-66
2023/08/25 10:06:33;;;;;;;48.63;46.13;;;;;;;;;;5097626;28;20035;-70
2023/08/25 10:08:59;;;;;;;43.90;41.60;;;;;;;;;;5100259;28;20315;-69
2023/08/25 10:11:42;;;;;;;30.40;28.83;;;;;;;;;;5100965;28;20682;-71
2023/08/25 10:14:10;;;;;;;30.10;28.50;;;;;;;;;;5095597;28;20375;-67
2023/08/25 10:16:49;;;;;;;45.45;43.00;;;;;;;;;;5097186;28;20028;-69
2023/08/25 10:19:18;;;;;;;27.88;26.38;;;;;;;;;;5077586;28;20365;-70
2023/08/25 10:21:46;;;;;;;30.65;28.98;;;;;;;;;;5098292;28;20043;-66
2023/08/25 10:24:17;;;;;;;29.55;26.60;;;;;;;;;;5100519;28;20454;-66
2023/08/25 10:26:44;;;;;;;35.00;33.03;;;;;;;;;;5077981;28;20109;-65
2023/08/25 10:29:11;;;;;;;31.38;29.70;;;;;;;;;;5104297;28;20035;-69
2023/08/25 10:32:04;;;;;;;29.52;27.98;;;;;;;;;;5081084;28;20032;-71
2023/08/25 10:34:43;;;;;;;55.38;52.58;;;;;;;;;;5099913;27;20050;-69
2023/08/25 10:37:10;;;;;;;51.28;48.70;;;;;;;;;;5101035;27;20043;-66
2023/08/25 10:39:58;;;;;;;58.47;55.50;;;;;;;;;;5090737;28;20038;-67
2023/08/25 10:42:27;;;;;;;63.80;60.60;;;;;;;;;;5102849;28;20032;-67
2023/08/25 10:45:07;;;;;;;55.83;53.03;;;;;;;;;;5103172;27;20366;-66
2023/08/25 10:47:41;;;;;;;67.30;63.92;;;;;;;;;;5103677;28;20068;-70
2023/08/25 10:50:07;;;;;;;58.22;53.95;;;;;;;;;;5105073;28;20035;-71
2023/08/25 10:52:32;;;;;;;61.85;58.70;;;;;;;;;;5102922;28;20032;-69
2023/08/25 10:55:25;;;;;;;63.28;60.08;;;;;;;;;;5100883;28;20049;-68
2023/08/25 10:57:51;;;;;;;69.40;65.95;;;;;;;;;;5103788;28;20123;-67
2023/08/25 11:00:24;;;;;;;53.25;50.50;;;;;;;;;;5085565;28;20381;-68
2023/08/25 11:02:50;;;;;;;66.60;63.30;;;;;;;;;;5103019;28;20102;-69
2023/08/25 11:05:33;;;;;;;63.35;60.17;;;;;;;;;;5104707;28;20118;-67
2023/08/25 11:08:03;;;;;;;58.78;55.83;;;;;;;;;;5103816;28;20513;-67
2023/08/25 11:10:31;;;;;;;54.67;51.75;;;;;;;;;;5103074;27;20040;-67
2023/08/25 11:12:59;;;;;;;61.88;58.75;;;;;;;;;;5080895;28;20043;-68
2023/08/25 11:15:25;;;;;;;64.38;61.13;;;;;;;;;;5081447;28;20031;-68
2023/08/25 11:17:51;;;;;;;60.15;57.15;;;;;;;;;;5103228;28;20084;-68
2023/08/25 11:20:17;;;;;;;53.72;50.95;;;;;;;;;;5103017;28;20043;-67
2023/08/25 11:22:58;;;;;;;54.95;52.17;;;;;;;;;;5084128;28;20027;-69
2023/08/25 11:25:28;;;;;;;42.70;40.50;;;;;;;;;;5100722;28;20048;-68
2023/08/25 11:27:54;;;;;;;44.05;41.85;;;;;;;;;;5079374;28;20043;-71
2023/08/25 11:30:21;;;;;;;49.75;47.25;;;;;;;;;;5082025;28;20604;-68
2023/08/25 11:32:50;;;;;;;48.65;46.20;;;;;;;;;;5100997;28;20027;-71
2023/08/25 11:35:16;;;;;;;40.07;37.83;;;;;;;;;;5103358;28;20051;-67
2023/08/25 11:37:46;;;;;;;43.47;41.22;;;;;;;;;;5103632;28;20349;-67
2023/08/25 11:40:17;;;;;;;44.63;42.35;;;;;;;;;;5078906;28;20473;-70
2023/08/25 11:42:43;;;;;;;37.75;35.85;;;;;;;;;;5103146;28;20080;-71
2023/08/25 11:45:09;;;;;;;41.13;39.03;;;;;;;;;;5081359;28;20028;-71
2023/08/25 11:47:35;;;;;;;57.60;54.70;;;;;;;;;;5082588;28;20040;-69
2023/08/25 11:50:02;;;;;;;44.92;42.65;;;;;;;;;;5103886;28;20032;-71
2023/08/25 11:52:28;;;;;;;28.40;26.90;;;;;;;;;;5101277;28;20031;-72
2023/08/25 11:54:53;;;;;;;39.50;37.47;;;;;;;;;;5101531;28;20123;-68
2023/08/25 11:57:19;;;;;;;52.00;49.38;;;;;;;;;;5101133;27;20043;-72
2023/08/25 11:59:49;;;;;;;45.90;43.55;;;;;;;;;;5101265;28;20046;-71
2023/08/25 12:02:16;;;;;;;48.28;45.80;;;;;;;;;;5102263;28;20027;-72
2023/08/25 12:04:55;;;;;;;43.67;41.33;;;;;;;;;;5103791;28;20039;-72
2023/08/25 12:07:22;;;;;;;42.83;40.63;;;;;;;;;;5081576;28;20038;-73
2023/08/25 12:09:53;;;;;;;58.55;55.60;;;;;;;;;;5102311;28;20402;-70
2023/08/25 12:12:18;;;;;;;39.63;37.55;;;;;;;;;;5102172;28;20063;-72
2023/08/25 12:14:44;;;;;;;34.17;32.38;;;;;;;;;;5101840;28;20066;-71
2023/08/25 12:17:20;;;;;;;29.02;27.48;;;;;;;;;;5102578;28;20031;-72
2023/08/25 12:19:45;;;;;;;28.02;26.48;;;;;;;;;;5100976;28;20040;-73
2023/08/25 12:22:15;;;;;;;53.15;50.45;;;;;;;;;;5103235;28;20112;-70
2023/08/25 12:24:41;;;;;;;65.28;61.97;;;;;;;;;;5101510;28;20142;-72
2023/08/25 12:27:06;;;;;;;65.93;62.65;;;;;;;;;;5101757;28;20123;-73
2023/08/25 12:29:32;;;;;;;60.72;57.67;;;;;;;;;;5103586;28;20023;-73
2023/08/25 12:31:57;;;;;;;61.40;58.28;;;;;;;;;;5101216;28;20031;-72
2023/08/25 12:34:22;;;;;;;54.58;51.83;;;;;;;;;;5103927;28;20042;-73
2023/08/25 12:36:48;;;;;;;38.28;36.20;;;;;;;;;;5101503;28;20058;-66
2023/08/25 12:39:13;;;;;;;38.22;36.22;;;;;;;;;;5102642;28;20047;-73
2023/08/25 12:41:39;;;;;;;40.50;38.42;;;;;;;;;;5103983;28;20039;-67
2023/08/25 12:44:04;;;;;;;44.25;42.00;;;;;;;;;;5076686;28;20524;-73
2023/08/25 12:46:30;;;;;;;37.03;35.05;;;;;;;;;;5101340;28;20115;-73
2023/08/25 12:48:56;;;;;;;36.83;34.92;;;;;;;;;;5101032;28;20079;-73
2023/08/25 12:51:21;;;;;;;37.45;35.55;;;;;;;;;;5102448;28;20024;-67
2023/08/25 12:53:46;;;;;;;43.00;40.80;;;;;;;;;;5101243;28;20030;-67
2023/08/25 12:56:12;;;;;;;47.75;45.33;;;;;;;;;;5083974;28;20071;-67
2023/08/25 12:58:39;;;;;;;61.88;58.78;;;;;;;;;;5101051;28;20088;-72
2023/08/25 13:01:06;;;;;;;36.05;34.15;;;;;;;;;;5100938;28;20027;-73
2023/08/25 13:03:32;;;;;;;63.17;60.00;;;;;;;;;;5080613;28;20023;-72
2023/08/25 13:05:59;;;;;;;91.40;86.90;;;;;;;;;;5097391;28;20042;-68
2023/08/25 13:08:25;;;;;;;70.50;66.97;;;;;;;;;;5102129;28;20110;-72
2023/08/25 13:10:51;;;;;;;137.50;130.38;;;;;;;;;;5100719;28;20434;-72
2023/08/25 13:13:17;;;;;;;107.68;102.25;;;;;;;;;;5101425;28;20039;-72
2023/08/25 13:15:42;;;;;;;146.20;139.05;;;;;;;;;;5099929;28;20040;-73
2023/08/25 13:18:08;;;;;;;145.55;138.38;;;;;;;;;;5078524;28;20042;-72
2023/08/25 13:20:33;;;;;;;162.80;154.80;;;;;;;;;;5079201;28;20088;-71
2023/08/25 13:22:59;;;;;;;133.73;127.15;;;;;;;;;;5079349;28;20027;-74
2023/08/25 13:25:25;;;;;;;138.35;131.55;;;;;;;;;;5101137;28;20369;-73
2023/08/25 13:27:50;;;;;;;125.57;119.43;;;;;;;;;;5099718;28;20031;-72
2023/08/25 13:30:15;;;;;;;136.07;129.35;;;;;;;;;;5102266;28;20042;-72
2023/08/25 13:32:41;;;;;;;142.68;135.60;;;;;;;;;;5077940;28;20043;-74
2023/08/25 13:35:07;;;;;;;159.18;151.38;;;;;;;;;;5077638;28;20050;-68
2023/08/25 13:37:35;;;;;;;141.18;134.20;;;;;;;;;;5098759;28;20038;-70
2023/08/25 13:40:01;;;;;;;146.52;139.30;;;;;;;;;;5101751;28;20027;-75
2023/08/25 13:42:26;;;;;;;124.32;118.13;;;;;;;;;;5100655;28;20049;-71
2023/08/25 13:44:52;;;;;;;126.82;120.53;;;;;;;;;;5099924;28;20031;-74
2023/08/25 13:47:17;;;;;;;135.73;128.45;;;;;;;;;;5100209;28;20097;-70
2023/08/25 13:49:43;;;;;;;131.88;125.30;;;;;;;;;;5100793;28;20504;-71
2023/08/25 13:52:09;;;;;;;128.60;121.47;;;;;;;;;;5101120;28;20126;-70
2023/08/25 13:54:34;;;;;;;82.28;78.18;;;;;;;;;;5101934;28;20135;-69
2023/08/25 13:57:00;;;;;;;88.40;84.00;;;;;;;;;;5101600;28;20093;-72
2023/08/25 13:59:25;;;;;;;128.57;122.18;;;;;;;;;;5100556;28;20035;-67
2023/08/25 14:01:50;;;;;;;135.05;128.30;;;;;;;;;;5105772;28;20055;-72
2023/08/25 14:04:16;;;;;;;164.52;156.13;;;;;;;;;;5103605;28;20032;-68